Time;durP1;ratioP1;P1;durP2;ratioP2;P2;SDS_P1;SDS_P2;PMS_P1;PMS_P2;Temp;Humidity;BMP_temperature;BMP_pressure;BME280_temperature;BME280_humidity;BME280_pressure;Samples;Min_cycle;Max_cycle;Signal;HPM_P1;HPM_P2
2023/02/12 00:01:09;;;;;;;29.58;15.68;;;;;;;9.60;100.00;98161.91;5111703;27;20072;-50
2023/02/12 00:03:38;;;;;;;26.75;14.57;;;;;;;9.14;100.00;98170.88;5102936;27;21035;-51
2023/02/12 00:06:07;;;;;;;29.65;15.20;;;;;;;9.42;100.00;98170.03;5103962;27;20094;-53
2023/02/12 00:08:35;;;;;;;28.13;14.70;;;;;;;9.25;100.00;98164.97;5098303;27;20146;-51
2023/02/12 00:11:08;;;;;;;27.25;15.35;;;;;;;9.14;100.00;98173.50;5102992;27;20079;-47
2023/02/12 00:13:37;;;;;;;28.83;14.40;;;;;;;9.41;100.00;98170.97;5098722;27;20458;-51
2023/02/12 00:16:07;;;;;;;31.13;14.18;;;;;;;9.33;100.00;98178.50;5091320;27;20737;-53
2023/02/12 00:18:37;;;;;;;28.33;15.30;;;;;;;9.45;100.00;98166.38;5096903;27;20086;-51
2023/02/12 00:21:07;;;;;;;32.37;15.80;;;;;;;9.37;100.00;98173.91;5109574;27;20553;-46
2023/02/12 00:23:36;;;;;;;29.38;15.55;;;;;;;9.23;100.00;98166.84;5100693;27;20508;-53
2023/02/12 00:26:06;;;;;;;29.02;15.50;;;;;;;9.60;100.00;98178.59;5106729;27;20091;-52
2023/02/12 00:28:35;;;;;;;29.30;15.57;;;;;;;9.88;100.00;98180.31;5106465;27;20086;-47
2023/02/12 00:31:07;;;;;;;30.23;15.38;;;;;;;9.91;100.00;98176.63;5101889;27;20087;-50
2023/02/12 00:33:37;;;;;;;29.08;14.57;;;;;;;9.77;100.00;98174.88;5099102;27;20075;-47
2023/02/12 00:36:06;;;;;;;28.92;15.70;;;;;;;9.82;100.00;98175.44;5097279;27;20468;-48
2023/02/12 00:38:35;;;;;;;29.67;15.20;;;;;;;9.68;100.00;98173.69;5098469;27;20550;-49
2023/02/12 00:41:04;;;;;;;29.77;15.82;;;;;;;9.37;100.00;98185.28;5097850;27;20080;-52
2023/02/12 00:43:32;;;;;;;31.88;15.02;;;;;;;9.14;100.00;98184.03;5094397;27;20072;-50
2023/02/12 00:46:00;;;;;;;28.13;14.45;;;;;;;9.44;100.00;98176.06;5096873;27;20083;-48
2023/02/12 00:48:29;;;;;;;27.85;15.10;;;;;;;9.26;100.00;98178.03;5106756;27;20114;-50
2023/02/12 00:50:59;;;;;;;29.52;14.43;;;;;;;9.71;100.00;98170.00;5096747;27;20079;-51
2023/02/12 00:53:27;;;;;;;28.63;14.73;;;;;;;9.22;100.00;98180.94;5094742;27;20188;-51
2023/02/12 00:55:55;;;;;;;32.90;14.75;;;;;;;9.50;100.00;98172.22;5096044;27;20117;-50
2023/02/12 00:58:24;;;;;;;28.95;15.13;;;;;;;9.23;100.00;98190.56;5100896;27;20557;-49
2023/02/12 01:00:53;;;;;;;30.55;15.30;;;;;;;9.53;100.00;98193.06;5100316;27;20083;-51
2023/02/12 01:03:22;;;;;;;29.73;15.52;;;;;;;9.38;100.00;98183.50;5093812;28;20079;-51
2023/02/12 01:05:50;;;;;;;26.90;14.75;;;;;;;9.42;100.00;98179.72;5094022;27;20105;-49
2023/02/12 01:08:20;;;;;;;29.83;15.50;;;;;;;9.66;100.00;98193.16;5098635;27;20076;-49
2023/02/12 01:10:54;;;;;;;30.30;14.32;;;;;;;10.07;100.00;98189.69;5099793;27;20076;-54
2023/02/12 01:13:24;;;;;;;31.35;15.60;;;;;;;10.20;100.00;98191.41;5090429;27;20072;-48
2023/02/12 01:16:01;;;;;;;29.13;15.63;;;;;;;9.67;100.00;98187.81;5097358;27;20443;-45
2023/02/12 01:18:30;;;;;;;32.60;16.00;;;;;;;9.83;100.00;98181.53;5093562;27;20157;-49
2023/02/12 01:20:58;;;;;;;29.35;16.13;;;;;;;9.97;100.00;98174.44;5096352;27;20068;-52
2023/02/12 01:23:28;;;;;;;31.73;15.63;;;;;;;10.07;100.00;98181.75;5100819;27;20609;-53
2023/02/12 01:25:58;;;;;;;35.27;15.93;;;;;;;9.67;100.00;98190.44;5090548;27;20087;-49
2023/02/12 01:28:27;;;;;;;29.58;15.75;;;;;;;9.62;100.00;98183.75;5096973;27;20383;-51
2023/02/12 01:30:55;;;;;;;32.80;17.92;;;;;;;9.14;100.00;98186.69;5096290;27;20064;-46
2023/02/12 01:33:23;;;;;;;34.63;16.33;;;;;;;9.42;100.00;98183.19;5100437;27;20063;-49
2023/02/12 01:35:52;;;;;;;29.60;16.05;;;;;;;9.73;100.00;98184.75;5091554;27;20063;-49
2023/02/12 01:38:20;;;;;;;32.05;16.35;;;;;;;9.84;100.00;98191.13;5101483;27;20845;-49
2023/02/12 01:40:50;;;;;;;30.15;15.88;;;;;;;9.96;100.00;98187.72;5090065;27;20146;-49
2023/02/12 01:43:18;;;;;;;33.23;17.30;;;;;;;9.99;100.00;98183.09;5104943;27;20079;-47
2023/02/12 01:45:51;;;;;;;30.48;16.80;;;;;;;9.97;100.00;98181.50;5093910;27;20519;-51
2023/02/12 01:48:24;;;;;;;32.25;16.63;;;;;;;9.65;100.00;98173.88;5100277;27;20079;-46
2023/02/12 01:50:53;;;;;;;33.17;16.45;;;;;;;9.56;100.00;98177.06;5105309;27;20078;-46
2023/02/12 01:53:25;;;;;;;31.02;15.23;;;;;;;9.77;100.00;98177.50;5092910;27;20048;-45
2023/02/12 01:55:55;;;;;;;;;;;;;;;9.49;100.00;98175.75;5092182;28;20067;-48
2023/02/12 01:58:25;;;;;;;31.77;16.05;;;;;;;10.15;100.00;98176.84;5095238;27;19986;-48
2023/02/12 02:00:53;;;;;;;33.13;16.95;;;;;;;9.91;100.00;98171.34;5095646;27;20567;-50
2023/02/12 02:03:22;;;;;;;35.30;17.13;;;;;;;10.01;100.00;98161.91;5093562;28;20083;-47
2023/02/12 02:05:55;;;;;;;37.13;18.10;;;;;;;9.96;100.00;98167.50;5099843;28;20056;-51
2023/02/12 02:08:25;;;;;;;33.63;16.15;;;;;;;9.93;100.00;98172.09;5109165;27;20071;-52
2023/02/12 02:10:55;;;;;;;35.05;16.70;;;;;;;9.81;100.00;98176.38;5097324;27;20027;-49
2023/02/12 02:16:13;;;;;;;31.00;15.98;;;;;;;9.26;100.00;98170.16;5068328;28;20467;-49
2023/02/12 02:18:44;;;;;;;36.97;17.15;;;;;;;9.01;100.00;98167.31;5103601;27;20523;-51
2023/02/12 02:21:44;;;;;;;31.50;16.63;;;;;;;9.06;100.00;98162.63;5095594;27;20063;-47
2023/02/12 02:24:40;;;;;;;33.35;17.58;;;;;;;9.15;100.00;98154.16;5094470;28;20074;-50
2023/02/12 02:27:19;;;;;;;34.28;18.02;;;;;;;8.93;100.00;98159.88;5095317;27;20687;-51
2023/02/12 02:30:23;;;;;;;37.00;17.30;;;;;;;8.99;100.00;98156.03;5095013;28;20074;-51
2023/02/12 02:32:58;;;;;;;33.90;17.95;;;;;;;9.03;100.00;98168.06;5095503;28;20566;-45
2023/02/12 02:35:31;;;;;;;37.08;17.67;;;;;;;9.26;100.00;98164.88;5097517;28;20117;-45
2023/02/12 02:38:07;;;;;;;36.60;18.45;;;;;;;9.33;100.00;98169.78;5092715;28;20452;-55
2023/02/12 02:40:40;;;;;;;38.10;17.75;;;;;;;10.01;100.00;98167.19;5093991;28;20085;-44
2023/02/12 02:43:15;;;;;;;37.95;18.17;;;;;;;10.07;100.00;98166.78;5092814;28;20036;-48
2023/02/12 02:45:46;;;;;;;38.03;19.42;;;;;;;10.39;100.00;98169.13;5091209;28;20082;-53
2023/02/12 02:48:16;;;;;;;;;;;;;;;9.90;100.00;98173.16;5095368;28;20107;-50
2023/02/12 02:50:48;;;;;;;34.28;17.85;;;;;;;9.86;100.00;98178.72;5097579;28;19963;-50
2023/02/12 02:53:20;;;;;;;35.55;18.10;;;;;;;9.84;100.00;98178.84;5100944;28;20515;-48
2023/02/12 02:55:52;;;;;;;34.85;18.40;;;;;;;9.69;100.00;98191.16;5092905;28;20451;-49
2023/02/12 02:58:24;;;;;;;36.05;18.33;;;;;;;9.56;100.00;98184.13;5093939;28;20107;-46
2023/02/12 03:00:57;;;;;;;38.10;18.45;;;;;;;9.56;100.00;98184.97;5093573;28;20099;-53
2023/02/12 03:03:32;;;;;;;35.85;18.95;;;;;;;9.55;100.00;98182.44;5098905;28;20071;-47
2023/02/12 03:06:04;;;;;;;39.97;19.48;;;;;;;9.22;100.00;98180.94;5093064;28;20066;-49
2023/02/12 03:08:36;;;;;;;36.10;18.23;;;;;;;8.87;100.00;98175.19;5095800;28;20460;-49
2023/02/12 03:11:08;;;;;;;39.72;19.42;;;;;;;9.18;100.00;98175.00;5097924;28;20067;-52
2023/02/12 03:13:39;;;;;;;36.78;20.20;;;;;;;9.80;100.00;98176.47;5098175;28;20075;-48
2023/02/12 03:16:09;;;;;;;38.80;19.90;;;;;;;9.90;100.00;98175.78;5088946;28;20121;-50
2023/02/12 03:18:46;;;;;;;38.15;19.13;;;;;;;9.30;100.00;98183.13;5102364;28;20441;-50
2023/02/12 03:21:18;;;;;;;37.75;19.67;;;;;;;9.43;100.00;98181.44;5094668;28;20044;-48
2023/02/12 03:23:49;;;;;;;36.17;17.65;;;;;;;9.34;100.00;98179.34;5097057;28;20071;-50
2023/02/12 03:26:21;;;;;;;40.00;19.33;;;;;;;9.59;100.00;98187.41;5093491;27;20068;-55
2023/02/12 03:28:50;;;;;;;37.75;18.02;;;;;;;9.79;100.00;98185.31;5096342;27;20761;-49
2023/02/12 03:31:27;;;;;;;41.35;20.02;;;;;;;9.83;100.00;98182.38;5096204;28;20072;-52
2023/02/12 03:34:06;;;;;;;38.17;19.70;;;;;;;9.90;100.00;98182.84;5098388;27;20177;-49
2023/02/12 03:36:43;;;;;;;43.45;19.60;;;;;;;9.90;100.00;98185.47;5096899;27;20074;-53
2023/02/12 03:39:15;;;;;;;39.35;18.77;;;;;;;9.94;100.00;98186.97;5098416;27;20067;-44
2023/02/12 03:41:46;;;;;;;39.85;18.77;;;;;;;8.92;100.00;98189.78;5103104;27;20059;-48
2023/02/12 03:44:20;;;;;;;35.83;19.00;;;;;;;9.17;100.00;98185.66;5099445;28;20082;-45
2023/02/12 03:46:58;;;;;;;38.55;19.13;;;;;;;9.51;100.00;98192.31;5094649;27;20083;-50
2023/02/12 03:49:31;;;;;;;40.67;20.20;;;;;;;9.63;100.00;98195.97;5097218;27;20067;-46
2023/02/12 03:51:59;;;;;;;43.38;20.05;;;;;;;9.14;100.00;98197.22;5094302;27;20066;-48
2023/02/12 03:54:28;;;;;;;38.30;19.50;;;;;;;9.51;100.00;98192.31;5103179;27;20086;-48
2023/02/12 03:57:00;;;;;;;38.95;20.48;;;;;;;9.74;100.00;98199.63;5106261;27;20089;-50
2023/02/12 03:59:29;;;;;;;38.40;20.40;;;;;;;9.67;100.00;98195.69;5097077;27;20084;-47
2023/02/12 04:01:59;;;;;;;44.30;20.55;;;;;;;9.79;100.00;98199.34;5098374;27;20102;-51
2023/02/12 04:04:29;;;;;;;40.78;20.27;;;;;;;9.90;100.00;98204.78;5104571;27;20078;-48
2023/02/12 04:06:58;;;;;;;43.08;21.73;;;;;;;10.14;100.00;98204.16;5096770;28;20545;-48
2023/02/12 04:09:27;;;;;;;41.30;20.23;;;;;;;10.31;100.00;98203.94;5097759;27;20535;-47
2023/02/12 04:12:06;;;;;;;42.50;21.17;;;;;;;10.28;100.00;98205.94;5100265;27;20075;-52
2023/02/12 04:14:42;;;;;;;38.10;20.23;;;;;;;9.77;100.00;98213.53;5102343;27;20067;-46
2023/02/12 04:17:19;;;;;;;41.75;21.52;;;;;;;9.50;100.00;98209.91;5095906;27;20072;-48
2023/02/12 04:19:58;;;;;;;40.35;21.08;;;;;;;9.78;100.00;98205.56;5089044;28;20437;-48
2023/02/12 04:22:41;;;;;;;41.90;20.50;;;;;;;9.95;100.00;98215.03;5095540;27;20066;-50
2023/02/12 04:25:20;;;;;;;40.05;20.83;;;;;;;10.40;100.00;98205.97;5095559;27;20071;-45
2023/02/12 04:27:57;;;;;;;41.33;20.08;;;;;;;10.19;100.00;98220.53;5099919;27;20151;-48
2023/02/12 04:30:28;;;;;;;41.17;20.40;;;;;;;10.37;100.00;98218.53;5092137;28;20098;-45
2023/02/12 04:33:00;;;;;;;38.30;21.08;;;;;;;10.19;100.00;98218.75;5093254;27;20620;-53
2023/02/12 04:35:32;;;;;;;39.30;20.55;;;;;;;10.14;100.00;98218.16;5098484;27;20075;-52
2023/02/12 04:38:08;;;;;;;39.80;20.73;;;;;;;9.96;100.00;98224.63;5094133;28;21558;-47
2023/02/12 04:40:38;;;;;;;40.42;20.55;;;;;;;9.87;100.00;98228.69;5098972;27;20081;-46
2023/02/12 04:43:07;;;;;;;43.38;20.58;;;;;;;10.04;100.00;98232.88;5095711;28;20308;-49
2023/02/12 04:45:36;;;;;;;44.20;20.95;;;;;;;10.15;100.00;98226.91;5101314;27;20542;-50
2023/02/12 04:48:05;;;;;;;42.10;22.13;;;;;;;9.92;100.00;98228.41;5099288;28;20492;-49
2023/02/12 04:50:38;;;;;;;38.90;22.10;;;;;;;10.50;100.00;98229.13;5092899;27;20063;-51
2023/02/12 04:53:07;;;;;;;39.83;20.33;;;;;;;10.63;100.00;98233.50;5097918;27;20067;-50
2023/02/12 04:55:35;;;;;;;41.10;21.77;;;;;;;10.68;100.00;98227.91;5098465;27;20077;-51
2023/02/12 04:58:04;;;;;;;39.53;21.73;;;;;;;10.36;100.00;98232.66;5100706;27;20051;-50
2023/02/12 05:00:33;;;;;;;41.42;22.00;;;;;;;10.61;100.00;98235.38;5102695;27;20100;-46
2023/02/12 05:03:01;;;;;;;44.25;22.15;;;;;;;9.93;100.00;98238.00;5100473;27;20590;-50
2023/02/12 05:05:29;;;;;;;44.40;22.75;;;;;;;10.10;100.00;98240.41;5100478;27;20069;-50
2023/02/12 05:07:59;;;;;;;43.15;21.50;;;;;;;10.23;100.00;98237.84;5098100;27;20106;-46
2023/02/12 05:10:27;;;;;;;41.60;23.30;;;;;;;9.74;100.00;98238.31;5091681;27;20075;-52
2023/02/12 05:12:56;;;;;;;45.13;22.90;;;;;;;10.15;100.00;98240.97;5095208;27;20075;-50
2023/02/12 05:15:24;;;;;;;48.80;23.55;;;;;;;9.93;100.00;98245.91;5091258;27;20358;-52
2023/02/12 05:17:52;;;;;;;46.65;23.50;;;;;;;9.70;100.00;98249.97;5099794;28;20090;-53
2023/02/12 05:20:21;;;;;;;44.45;23.05;;;;;;;9.52;100.00;98247.53;5093836;27;20083;-50
2023/02/12 05:22:52;;;;;;;50.15;23.63;;;;;;;9.43;100.00;98244.63;5097615;28;20079;-51
2023/02/12 05:25:22;;;;;;;46.78;23.73;;;;;;;9.56;100.00;98249.97;5098719;27;20086;-45
2023/02/12 05:27:50;;;;;;;46.83;24.77;;;;;;;9.18;100.00;98258.41;5100631;27;20059;-47
2023/02/12 05:30:19;;;;;;;45.58;24.23;;;;;;;10.02;100.00;98257.66;5106070;27;20086;-52
2023/02/12 05:32:47;;;;;;;52.40;23.85;;;;;;;10.07;100.00;98259.06;5101009;27;20071;-56
2023/02/12 05:35:15;;;;;;;50.63;25.00;;;;;;;10.01;100.00;98262.06;5103238;27;20067;-48
2023/02/12 05:37:44;;;;;;;48.55;24.55;;;;;;;9.82;100.00;98259.75;5102439;27;20071;-50
2023/02/12 05:40:13;;;;;;;49.50;24.75;;;;;;;9.43;100.00;98258.63;5092194;27;20063;-46
2023/02/12 05:42:43;;;;;;;49.70;26.00;;;;;;;9.64;100.00;98261.75;5099908;27;20518;-47
2023/02/12 05:45:11;;;;;;;48.50;24.83;;;;;;;9.62;100.00;98255.72;5095321;27;20072;-47
2023/02/12 05:47:39;;;;;;;51.75;25.60;;;;;;;9.77;100.00;98253.91;5091918;27;20079;-47
2023/02/12 05:50:08;;;;;;;45.83;23.77;;;;;;;9.33;100.00;98270.66;5096298;27;20518;-53
2023/02/12 05:52:37;;;;;;;45.08;24.33;;;;;;;9.59;100.00;98263.81;5095064;27;20059;-51
2023/02/12 05:55:06;;;;;;;49.63;25.85;;;;;;;9.60;100.00;98268.16;5096991;27;20455;-51
2023/02/12 05:57:34;;;;;;;46.95;25.15;;;;;;;9.49;100.00;98262.66;5093944;28;20075;-49
2023/02/12 06:00:05;;;;;;;48.42;24.98;;;;;;;9.40;100.00;98252.72;5092443;28;20464;-50
2023/02/12 06:02:34;;;;;;;47.42;25.73;;;;;;;9.27;100.00;98256.06;5099848;27;20092;-49
2023/02/12 06:05:02;;;;;;;48.70;25.10;;;;;;;9.47;100.00;98261.94;5092655;28;20075;-52
2023/02/12 06:07:31;;;;;;;48.50;25.33;;;;;;;9.81;100.00;98265.13;5092011;28;20106;-52
2023/02/12 06:09:59;;;;;;;52.60;25.80;;;;;;;9.46;100.00;98266.34;5093341;27;20114;-49
2023/02/12 06:12:28;;;;;;;47.67;25.15;;;;;;;9.60;100.00;98262.88;5095007;27;20460;-49
2023/02/12 06:14:56;;;;;;;49.13;25.55;;;;;;;9.88;100.00;98266.44;5099942;27;20578;-46
2023/02/12 06:17:26;;;;;;;49.58;26.75;;;;;;;9.87;100.00;98259.47;5095188;27;20072;-47
2023/02/12 06:19:54;;;;;;;55.23;25.97;;;;;;;9.74;100.00;98267.31;5093575;28;20072;-48
2023/02/12 06:22:22;;;;;;;50.70;26.10;;;;;;;10.06;100.00;98262.63;5097492;27;20075;-52
2023/02/12 06:24:51;;;;;;;50.75;25.85;;;;;;;10.03;100.00;98276.00;5112648;27;20081;-50
2023/02/12 06:27:19;;;;;;;54.92;27.38;;;;;;;9.95;100.00;98265.13;5100226;27;20075;-51
2023/02/12 06:29:47;;;;;;;49.80;26.92;;;;;;;9.96;100.00;98267.63;5099579;27;20079;-51
2023/02/12 06:32:16;;;;;;;54.05;27.27;;;;;;;9.35;100.00;98275.81;5096440;28;20063;-52
2023/02/12 06:34:46;;;;;;;53.28;27.30;;;;;;;9.45;100.00;98280.44;5089137;28;20067;-50
2023/02/12 06:37:14;;;;;;;56.10;26.63;;;;;;;9.71;100.00;98280.66;5097307;28;20471;-51
2023/02/12 06:39:42;;;;;;;55.50;27.17;;;;;;;10.08;100.00;98279.22;5094449;28;20087;-53
2023/02/12 06:42:10;;;;;;;53.92;27.15;;;;;;;9.98;100.00;98276.31;5096961;28;20087;-47
2023/02/12 06:44:39;;;;;;;52.90;27.10;;;;;;;10.34;100.00;98288.13;5095094;28;20059;-53
2023/02/12 06:47:07;;;;;;;54.88;26.25;;;;;;;10.39;100.00;98288.69;5089922;28;20075;-51
2023/02/12 06:49:36;;;;;;;51.63;27.10;;;;;;;10.36;100.00;98285.41;5097301;28;20075;-48
2023/02/12 06:52:05;;;;;;;49.05;26.42;;;;;;;10.22;100.00;98281.81;5094145;28;20071;-49
2023/02/12 06:54:34;;;;;;;52.00;26.83;;;;;;;10.41;100.00;98288.59;5089079;28;20067;-49
2023/02/12 06:57:02;;;;;;;56.20;27.75;;;;;;;10.38;100.00;98288.78;5092570;28;20067;-48
2023/02/12 06:59:30;;;;;;;51.58;27.90;;;;;;;10.22;100.00;98286.25;5092466;28;20080;-50
2023/02/12 07:01:59;;;;;;;52.05;26.80;;;;;;;10.16;100.00;98287.47;5095504;27;20063;-52
2023/02/12 07:04:27;;;;;;;47.42;27.13;;;;;;;10.02;100.00;98290.16;5098506;27;20083;-51
2023/02/12 07:06:55;;;;;;;58.75;29.33;;;;;;;10.30;100.00;98288.44;5099520;27;20087;-48
2023/02/12 07:09:26;;;;;;;53.65;27.33;;;;;;;9.42;100.00;98304.31;5097740;28;20070;-46
2023/02/12 07:11:55;;;;;;;49.42;27.63;;;;;;;10.15;100.00;98298.97;5096781;27;20059;-48
2023/02/12 07:14:25;;;;;;;52.75;27.98;;;;;;;9.78;100.00;98295.16;5105995;27;20071;-48
2023/02/12 07:16:53;;;;;;;45.92;26.45;;;;;;;10.31;100.00;98290.94;5099582;27;20063;-50
2023/02/12 07:19:25;;;;;;;50.20;26.90;;;;;;;10.20;100.00;98286.34;5097450;27;20083;-48
2023/02/12 07:21:53;;;;;;;52.88;28.02;;;;;;;10.23;100.00;98293.22;5095839;28;20533;-50
2023/02/12 07:24:21;;;;;;;57.65;30.55;;;;;;;9.85;100.00;98290.34;5101035;27;20071;-46
2023/02/12 07:26:51;;;;;;;54.70;28.33;;;;;;;10.41;100.00;98292.06;5099620;27;20067;-47
2023/02/12 07:29:19;;;;;;;55.75;29.15;;;;;;;10.27;100.00;98292.09;5092637;27;20075;-47
2023/02/12 07:31:48;;;;;;;54.08;28.17;;;;;;;10.35;100.00;98292.44;5097603;27;20066;-47
2023/02/12 07:34:16;;;;;;;55.38;29.27;;;;;;;10.31;100.00;98287.47;5095170;27;20652;-51
2023/02/12 07:36:44;;;;;;;53.95;28.45;;;;;;;10.30;100.00;98284.00;5098996;27;20071;-47
2023/02/12 07:39:13;;;;;;;52.70;26.75;;;;;;;10.06;100.00;98286.38;5099961;27;20070;-52
2023/02/12 07:41:42;;;;;;;50.63;28.02;;;;;;;10.59;100.00;98297.09;5097495;27;20095;-47
2023/02/12 07:44:12;;;;;;;57.53;28.15;;;;;;;10.73;100.00;98290.91;5092579;27;20059;-47
2023/02/12 07:46:42;;;;;;;53.50;27.80;;;;;;;10.66;100.00;98298.38;5099132;27;20072;-48
2023/02/12 07:49:16;;;;;;;58.92;29.75;;;;;;;10.64;100.00;98293.22;5103307;27;20078;-50
2023/02/12 07:51:45;;;;;;;57.92;28.20;;;;;;;10.93;100.00;98291.28;5097241;27;20072;-49
2023/02/12 07:54:14;;;;;;;54.88;29.45;;;;;;;10.81;100.00;98294.75;5095337;27;20067;-51
2023/02/12 07:56:45;;;;;;;52.05;27.27;;;;;;;11.10;100.00;98286.69;5103049;27;20071;-48
2023/02/12 07:59:17;;;;;;;54.45;27.70;;;;;;;11.21;100.00;98293.88;5100780;27;20459;-51
2023/02/12 08:01:46;;;;;;;52.90;27.40;;;;;;;10.78;100.00;98296.75;5091848;27;20440;-48
2023/02/12 08:04:16;;;;;;;55.80;28.67;;;;;;;11.03;100.00;98302.09;5095074;27;20071;-54
2023/02/12 08:06:46;;;;;;;51.75;27.45;;;;;;;11.56;100.00;98291.47;5096043;27;20681;-45
2023/02/12 08:09:17;;;;;;;59.97;27.67;;;;;;;11.50;100.00;98294.56;5107408;27;20063;-48
2023/02/12 08:11:46;;;;;;;53.20;27.80;;;;;;;11.67;100.00;98288.97;5103083;27;20074;-47
2023/02/12 08:14:17;;;;;;;52.83;27.58;;;;;;;11.69;100.00;98289.69;5106619;27;20067;-51
2023/02/12 08:16:47;;;;;;;55.80;29.05;;;;;;;11.52;100.00;98292.66;5103544;27;20059;-49
2023/02/12 08:19:15;;;;;;;57.72;28.67;;;;;;;11.87;100.00;98280.53;5109592;27;20098;-49
2023/02/12 08:21:50;;;;;;;56.88;28.90;;;;;;;11.81;100.00;98285.34;5104292;27;20071;-50
2023/02/12 08:24:18;;;;;;;56.13;27.88;;;;;;;10.54;100.00;98302.69;5106153;27;20066;-50
2023/02/12 08:26:47;;;;;;;50.00;27.45;;;;;;;10.42;100.00;98301.66;5110856;27;20081;-50
2023/02/12 08:29:18;;;;;;;52.63;28.02;;;;;;;11.08;100.00;98294.72;5099426;27;20149;-51
2023/02/12 08:31:48;;;;;;;58.40;28.40;;;;;;;11.70;100.00;98283.47;5092389;27;20068;-53
2023/02/12 08:34:18;;;;;;;57.08;31.52;;;;;;;11.00;100.00;98285.63;5094657;27;20456;-50
2023/02/12 08:36:48;;;;;;;56.70;29.05;;;;;;;11.48;100.00;98288.53;5096312;27;20074;-45
2023/02/12 08:39:18;;;;;;;57.40;29.98;;;;;;;11.68;100.00;98288.00;5096164;28;20079;-52
2023/02/12 08:41:46;;;;;;;53.30;29.33;;;;;;;12.03;100.00;98285.56;5110558;27;20061;-47
2023/02/12 08:44:16;;;;;;;55.60;28.80;;;;;;;11.64;100.00;98291.81;5101979;27;20082;-47
2023/02/12 08:46:46;;;;;;;57.70;29.70;;;;;;;12.30;100.00;98281.91;5105250;27;20541;-49
2023/02/12 08:49:17;;;;;;;293.52;135.38;;;;;;;12.51;100.00;98275.03;5104867;27;20067;-53
2023/02/12 08:51:50;;;;;;;61.17;31.08;;;;;;;11.27;100.00;98296.13;5097925;27;20078;-51
2023/02/12 08:54:20;;;;;;;52.08;29.25;;;;;;;11.34;100.00;98300.88;5099048;27;20383;-49
2023/02/12 08:56:48;;;;;;;56.15;29.63;;;;;;;12.20;100.00;98283.50;5096059;27;20090;-48
2023/02/12 08:59:18;;;;;;;59.92;28.52;;;;;;;12.16;100.00;98284.69;5109996;27;20468;-49
2023/02/12 09:01:46;;;;;;;53.67;27.85;;;;;;;11.52;100.00;98285.56;5095910;27;20079;-49
2023/02/12 09:04:16;;;;;;;53.15;28.90;;;;;;;11.89;100.00;98290.97;5103296;27;20083;-49
2023/02/12 09:06:46;;;;;;;53.00;28.45;;;;;;;12.46;100.00;98285.13;5104172;27;20058;-47
2023/02/12 09:09:15;;;;;;;54.53;28.95;;;;;;;12.61;100.00;98284.97;5096510;28;20075;-52
2023/02/12 09:11:43;;;;;;;52.50;27.15;;;;;;;13.26;100.00;98281.88;5098816;27;20063;-50
2023/02/12 09:14:14;;;;;;;51.42;27.95;;;;;;;13.36;100.00;98280.22;5109898;27;20086;-46
2023/02/12 09:16:44;;;;;;;59.13;28.48;;;;;;;13.33;100.00;98288.41;5094640;27;20518;-49
2023/02/12 09:19:14;;;;;;;48.05;26.17;;;;;;;13.38;100.00;98285.38;5102245;27;20070;-51
2023/02/12 09:21:43;;;;;;;47.03;25.50;;;;;;;14.03;100.00;98282.06;5098712;28;20513;-46
2023/02/12 09:24:11;;;;;;;50.00;28.05;;;;;;;13.71;100.00;98280.16;5093456;27;20079;-54
2023/02/12 09:26:40;;;;;;;53.30;27.88;;;;;;;12.97;100.00;98292.84;5098523;27;20079;-54
2023/02/12 09:29:08;;;;;;;53.13;26.58;;;;;;;14.02;100.00;98283.88;5108132;27;20082;-50
2023/02/12 09:31:36;;;;;;;49.20;25.30;;;;;;;13.12;100.00;98290.00;5101716;27;20070;-45
2023/02/12 09:34:07;;;;;;;50.47;26.92;;;;;;;14.03;100.00;98290.03;5099598;27;20082;-49
2023/02/12 09:36:36;;;;;;;50.85;26.50;;;;;;;14.51;100.00;98279.13;5098961;27;20111;-50
2023/02/12 09:39:04;;;;;;;45.95;24.25;;;;;;;14.07;100.00;98286.16;5099063;27;20380;-45
2023/02/12 09:41:46;;;;;;;46.28;25.27;;;;;;;14.48;100.00;98282.84;5096314;27;20079;-49
2023/02/12 09:44:20;;;;;;;44.80;24.55;;;;;;;14.29;100.00;98285.31;5101494;27;20071;-52
2023/02/12 09:46:50;;;;;;;37.42;20.83;;;;;;;14.11;100.00;98287.63;5090611;28;20075;-50
2023/02/12 09:49:22;;;;;;;;;;;;;;;14.22;100.00;98284.97;5098540;27;20437;-51
2023/02/12 09:51:53;;;;;;;40.25;21.30;;;;;;;13.87;100.00;98301.03;5096905;27;20364;-50
2023/02/12 09:54:23;;;;;;;35.67;18.83;;;;;;;14.48;100.00;98293.47;5095310;27;20087;-49
2023/02/12 09:56:55;;;;;;;35.38;18.75;;;;;;;14.44;100.00;98293.84;5090646;27;20460;-51
2023/02/12 09:59:30;;;;;;;35.08;19.25;;;;;;;14.75;100.00;98284.25;5097725;27;20086;-46
2023/02/12 10:01:59;;;;;;;33.35;19.42;;;;;;;14.32;100.00;98292.19;5099246;27;20106;-53
2023/02/12 10:04:29;;;;;;;38.03;21.13;;;;;;;14.82;100.00;98289.91;5101753;28;20526;-52
2023/02/12 10:07:03;;;;;;;38.63;22.40;;;;;;;14.64;100.00;98297.59;5098449;28;20102;-51
2023/02/12 10:09:43;;;;;;;41.55;22.38;;;;;;;14.64;100.00;98303.72;5104746;27;20554;-53
2023/02/12 10:12:15;;;;;;;34.43;20.13;;;;;;;15.11;100.00;98308.78;5097944;27;20078;-55
2023/02/12 10:14:56;;;;;;;32.25;19.38;;;;;;;14.57;100.00;98301.72;5096700;28;20063;-52
2023/02/12 10:17:33;;;;;;;32.47;18.40;;;;;;;14.71;100.00;98306.72;5111648;27;20443;-51
2023/02/12 10:20:35;;;;;;;31.83;18.65;;;;;;;14.68;100.00;98301.66;5101800;28;20067;-53
2023/02/12 10:23:21;;;;;;;30.00;17.77;;;;;;;13.48;100.00;98307.59;5022372;28;20135;-53
2023/02/12 10:25:51;;;;;;;24.80;15.38;;;;;;;15.03;100.00;98311.22;5093728;27;20063;-48
2023/02/12 10:28:26;;;;;;;28.55;16.70;;;;;;;15.71;92.71;98290.44;5097551;27;20078;-49
2023/02/12 10:30:56;;;;;;;32.45;18.20;;;;;;;14.90;100.00;98304.25;5107645;27;20070;-50
2023/02/12 10:33:28;;;;;;;31.10;18.48;;;;;;;14.83;100.00;98303.09;5097230;27;20184;-50
2023/02/12 10:36:01;;;;;;;29.65;17.40;;;;;;;13.97;100.00;98307.28;5097386;28;20067;-54
2023/02/12 10:38:31;;;;;;;29.15;16.98;;;;;;;14.07;100.00;98309.19;5104944;28;20075;-47
2023/02/12 10:41:01;;;;;;;27.92;15.55;;;;;;;14.80;100.00;98298.03;5098187;28;20436;-54
2023/02/12 10:43:30;;;;;;;28.55;16.10;;;;;;;13.89;100.00;98300.88;5100110;28;20554;-55
2023/02/12 10:45:59;;;;;;;28.80;16.52;;;;;;;14.78;100.00;98310.56;5093139;28;20076;-51
2023/02/12 10:48:31;;;;;;;25.05;15.07;;;;;;;14.63;100.00;98304.72;5100666;28;20060;-53
2023/02/12 10:51:13;;;;;;;28.13;14.40;;;;;;;15.11;100.00;98303.47;5101026;28;20059;-53
2023/02/12 10:53:43;;;;;;;19.10;11.63;;;;;;;15.25;100.00;98303.16;5099267;28;20075;-47
2023/02/12 10:56:16;;;;;;;16.90;10.43;;;;;;;15.13;98.81;98307.66;5095832;28;20074;-51
2023/02/12 10:58:53;;;;;;;16.35;9.70;;;;;;;14.72;100.00;98297.78;5103828;28;20059;-52
2023/02/12 11:01:25;;;;;;;17.25;10.18;;;;;;;15.35;100.00;98303.22;5094576;28;20066;-52
2023/02/12 11:03:55;;;;;;;17.13;9.98;;;;;;;15.23;99.09;98294.44;5102426;28;20068;-52
2023/02/12 11:06:26;;;;;;;18.70;10.15;;;;;;;15.33;94.29;98294.53;5095636;27;20560;-48
2023/02/12 11:08:56;;;;;;;17.50;10.38;;;;;;;15.66;93.67;98283.72;5099758;28;20563;-52
2023/02/12 11:11:27;;;;;;;19.63;12.10;;;;;;;15.78;89.69;98281.81;5094225;28;20106;-52
2023/02/12 11:13:58;;;;;;;25.15;12.23;;;;;;;15.44;97.61;98289.97;5098426;27;20063;-47
2023/02/12 11:16:28;;;;;;;22.08;12.52;;;;;;;15.23;100.00;98278.50;5093507;28;20079;-49
2023/02/12 11:19:04;;;;;;;24.35;13.80;;;;;;;15.36;100.00;98283.63;5096274;28;20523;-51
2023/02/12 11:21:35;;;;;;;16.83;9.63;;;;;;;14.79;100.00;98290.16;5096880;28;20460;-54
2023/02/12 11:24:22;;;;;;;;;;;;;;;14.78;100.00;98285.84;5101066;28;20071;-52
2023/02/12 11:26:50;;;;;;;17.50;10.75;;;;;;;14.63;100.00;98283.47;5102095;28;19982;-53
2023/02/12 11:29:22;;;;;;;17.67;10.48;;;;;;;13.71;100.00;98295.22;5106575;28;20541;-52
2023/02/12 11:32:01;;;;;;;15.25;9.48;;;;;;;13.35;100.00;98290.91;5094431;27;20529;-53
2023/02/12 11:34:29;;;;;;;14.40;9.82;;;;;;;13.74;100.00;98285.22;5099202;28;20063;-51